sensor_id;sensor_type;location;lat;lon;timestamp;pressure;altitude;pressure_sealevel;temperature;humidity
5298;BME280;14738;42.668;23.250;2023-08-12T00:00:48;48358.53;;;-141.90;62.17
5298;BME280;14738;42.668;23.250;2023-08-12T00:03:14;48406.19;;;-141.90;62.97
5298;BME280;14738;42.668;23.250;2023-08-12T00:05:39;48386.34;;;-141.90;63.14
5298;BME280;14738;42.668;23.250;2023-08-12T00:08:05;48378.38;;;-141.90;62.70
5298;BME280;14738;42.668;23.250;2023-08-12T00:10:31;48390.31;;;-141.90;63.59
5298;BME280;14738;42.668;23.250;2023-08-12T00:12:57;48342.66;;;-141.90;63.52
5298;BME280;14738;42.668;23.250;2023-08-12T00:15:22;48360.53;;;-141.90;63.56
5298;BME280;14738;42.668;23.250;2023-08-12T00:17:48;48370.44;;;-141.90;63.29
5298;BME280;14738;42.668;23.250;2023-08-12T00:20:13;48366.47;;;-141.90;63.46
5298;BME280;14738;42.668;23.250;2023-08-12T00:22:39;48364.50;;;-141.90;63.19
5298;BME280;14738;42.668;23.250;2023-08-12T00:25:05;48364.50;;;-141.90;63.44
5298;BME280;14738;42.668;23.250;2023-08-12T00:27:31;48368.47;;;-141.90;63.02
5298;BME280;14738;42.668;23.250;2023-08-12T00:29:56;48378.38;;;-141.90;63.46
5298;BME280;14738;42.668;23.250;2023-08-12T00:32:21;48358.53;;;-141.90;63.30
5298;BME280;14738;42.668;23.250;2023-08-12T00:34:47;48362.50;;;-141.90;62.98
5298;BME280;14738;42.668;23.250;2023-08-12T00:37:12;48350.59;;;-141.90;63.70
5298;BME280;14738;42.668;23.250;2023-08-12T00:39:37;48398.25;;;-141.90;63.44
5298;BME280;14738;42.668;23.250;2023-08-12T00:42:03;48378.38;;;-141.90;64.16
5298;BME280;14738;42.668;23.250;2023-08-12T00:44:28;48388.31;;;-141.90;64.19
5298;BME280;14738;42.668;23.250;2023-08-12T00:46:54;48366.47;;;-141.90;64.79
5298;BME280;14738;42.668;23.250;2023-08-12T00:49:21;48378.38;;;-141.90;64.33
5298;BME280;14738;42.668;23.250;2023-08-12T00:51:50;48364.50;;;-141.90;64.58
5298;BME280;14738;42.668;23.250;2023-08-12T00:54:19;48386.34;;;-141.90;64.55
5298;BME280;14738;42.668;23.250;2023-08-12T00:56:45;48394.28;;;-141.90;65.18
5298;BME280;14738;42.668;23.250;2023-08-12T00:59:11;48368.47;;;-141.90;64.89
5298;BME280;14738;42.668;23.250;2023-08-12T01:01:40;48368.47;;;-141.90;64.46
5298;BME280;14738;42.668;23.250;2023-08-12T01:04:09;48382.34;;;-141.90;64.02
5298;BME280;14738;42.668;23.250;2023-08-12T01:06:35;48360.53;;;-141.90;64.00
5298;BME280;14738;42.668;23.250;2023-08-12T01:09:01;48362.50;;;-141.90;64.55
5298;BME280;14738;42.668;23.250;2023-08-12T01:11:55;48360.53;;;-141.90;65.45
5298;BME280;14738;42.668;23.250;2023-08-12T01:14:45;48370.44;;;-141.90;66.09
5298;BME280;14738;42.668;23.250;2023-08-12T01:17:12;48350.59;;;-141.90;66.20
5298;BME280;14738;42.668;23.250;2023-08-12T01:19:40;48354.56;;;-141.90;66.30
5298;BME280;14738;42.668;23.250;2023-08-12T01:22:09;48378.38;;;-141.90;67.29
5298;BME280;14738;42.668;23.250;2023-08-12T01:24:37;48392.28;;;-141.90;66.34
5298;BME280;14738;42.668;23.250;2023-08-12T01:27:03;48358.53;;;-141.90;67.28
5298;BME280;14738;42.668;23.250;2023-08-12T01:29:29;48378.38;;;-141.90;67.15
5298;BME280;14738;42.668;23.250;2023-08-12T01:34:53;48366.47;;;-141.90;65.96
5298;BME280;14738;42.668;23.250;2023-08-12T01:37:28;48362.50;;;-141.90;65.74
5298;BME280;14738;42.668;23.250;2023-08-12T01:39:55;48370.44;;;-141.90;64.09
5298;BME280;14738;42.668;23.250;2023-08-12T01:42:22;48386.34;;;-141.90;63.32
5298;BME280;14738;42.668;23.250;2023-08-12T01:44:48;48350.59;;;-141.90;63.05
5298;BME280;14738;42.668;23.250;2023-08-12T01:47:14;48366.47;;;-141.90;63.82
5298;BME280;14738;42.668;23.250;2023-08-12T01:49:40;48362.50;;;-141.90;63.45
5298;BME280;14738;42.668;23.250;2023-08-12T01:52:05;48378.38;;;-141.90;63.92
5298;BME280;14738;42.668;23.250;2023-08-12T01:54:31;48358.53;;;-141.90;65.04
5298;BME280;14738;42.668;23.250;2023-08-12T01:57:07;48372.44;;;-141.90;63.37
5298;BME280;14738;42.668;23.250;2023-08-12T01:59:37;48402.22;;;-141.90;64.95
5298;BME280;14738;42.668;23.250;2023-08-12T02:02:03;48362.50;;;-141.90;65.59
5298;BME280;14738;42.668;23.250;2023-08-12T02:04:29;48374.41;;;-141.90;65.33
5298;BME280;14738;42.668;23.250;2023-08-12T02:06:55;48354.56;;;-141.90;64.67
5298;BME280;14738;42.668;23.250;2023-08-12T02:09:20;48346.63;;;-141.90;65.82
5298;BME280;14738;42.668;23.250;2023-08-12T02:11:47;48352.59;;;-141.90;65.06
5298;BME280;14738;42.668;23.250;2023-08-12T02:14:12;48360.53;;;-141.90;65.36
5298;BME280;14738;42.668;23.250;2023-08-12T02:16:37;48368.47;;;-141.90;66.00
5298;BME280;14738;42.668;23.250;2023-08-12T02:19:03;48374.41;;;-141.90;66.52
5298;BME280;14738;42.668;23.250;2023-08-12T02:21:28;48364.50;;;-141.90;65.94
5298;BME280;14738;42.668;23.250;2023-08-12T02:23:54;48352.59;;;-141.90;66.24
5298;BME280;14738;42.668;23.250;2023-08-12T02:26:19;48378.38;;;-141.90;65.90
5298;BME280;14738;42.668;23.250;2023-08-12T02:28:48;48378.38;;;-141.90;65.57
5298;BME280;14738;42.668;23.250;2023-08-12T02:31:15;48416.09;;;-141.90;65.21
5298;BME280;14738;42.668;23.250;2023-08-12T02:33:41;48364.50;;;-141.90;63.92
5298;BME280;14738;42.668;23.250;2023-08-12T02:36:07;48384.34;;;-141.90;64.25
5298;BME280;14738;42.668;23.250;2023-08-12T02:38:32;48362.50;;;-141.90;65.33
5298;BME280;14738;42.668;23.250;2023-08-12T02:40:57;48358.53;;;-141.90;65.99
5298;BME280;14738;42.668;23.250;2023-08-12T02:43:23;48366.47;;;-141.90;65.06
5298;BME280;14738;42.668;23.250;2023-08-12T02:45:48;48368.47;;;-141.90;65.62
5298;BME280;14738;42.668;23.250;2023-08-12T02:48:13;48340.66;;;-141.90;65.22
5298;BME280;14738;42.668;23.250;2023-08-12T02:50:39;48362.50;;;-141.90;65.23
5298;BME280;14738;42.668;23.250;2023-08-12T02:53:05;48342.66;;;-141.90;65.70
5298;BME280;14738;42.668;23.250;2023-08-12T02:55:31;48378.38;;;-141.90;66.27
5298;BME280;14738;42.668;23.250;2023-08-12T02:58:00;48378.38;;;-141.90;65.25
5298;BME280;14738;42.668;23.250;2023-08-12T03:00:26;48362.50;;;-141.90;64.75
5298;BME280;14738;42.668;23.250;2023-08-12T03:02:53;48378.38;;;-141.90;64.51
5298;BME280;14738;42.668;23.250;2023-08-12T03:05:18;48346.63;;;-141.90;65.91
5298;BME280;14738;42.668;23.250;2023-08-12T03:07:43;48374.41;;;-141.90;65.11
5298;BME280;14738;42.668;23.250;2023-08-12T03:10:09;48366.47;;;-141.90;65.76
5298;BME280;14738;42.668;23.250;2023-08-12T03:12:35;48350.59;;;-141.90;64.25
5298;BME280;14738;42.668;23.250;2023-08-12T03:15:01;48370.44;;;-141.90;65.95
5298;BME280;14738;42.668;23.250;2023-08-12T03:17:26;48368.47;;;-141.90;65.92
5298;BME280;14738;42.668;23.250;2023-08-12T03:19:52;48396.25;;;-141.90;66.18
5298;BME280;14738;42.668;23.250;2023-08-12T03:22:19;48362.50;;;-141.90;65.01
5298;BME280;14738;42.668;23.250;2023-08-12T03:24:45;48370.44;;;-141.90;65.08
5298;BME280;14738;42.668;23.250;2023-08-12T03:27:10;48334.72;;;-141.90;65.23
5298;BME280;14738;42.668;23.250;2023-08-12T03:29:35;48368.47;;;-141.90;65.51
5298;BME280;14738;42.668;23.250;2023-08-12T03:32:01;48326.78;;;-141.90;65.69
5298;BME280;14738;42.668;23.250;2023-08-12T03:34:28;48356.56;;;-141.90;64.38
5298;BME280;14738;42.668;23.250;2023-08-12T03:36:54;48392.28;;;-141.90;65.30
5298;BME280;14738;42.668;23.250;2023-08-12T03:39:20;48354.56;;;-141.90;64.92
5298;BME280;14738;42.668;23.250;2023-08-12T03:41:45;48360.53;;;-141.90;64.61
5298;BME280;14738;42.668;23.250;2023-08-12T03:44:11;48370.44;;;-141.90;63.19
5298;BME280;14738;42.668;23.250;2023-08-12T03:46:36;48378.38;;;-141.90;60.68
5298;BME280;14738;42.668;23.250;2023-08-12T03:49:02;48396.25;;;-141.90;58.18
5298;BME280;14738;42.668;23.250;2023-08-12T03:51:27;48422.06;;;-141.90;55.64
5298;BME280;14738;42.668;23.250;2023-08-12T03:53:52;48410.16;;;-141.90;52.12
5298;BME280;14738;42.668;23.250;2023-08-12T03:56:18;48461.78;;;-141.90;49.83
5298;BME280;14738;42.668;23.250;2023-08-12T03:58:43;48465.75;;;-141.90;47.48
5298;BME280;14738;42.668;23.250;2023-08-12T04:01:08;48509.41;;;-141.90;45.98
5298;BME280;14738;42.668;23.250;2023-08-12T04:03:34;48521.34;;;-141.90;43.60
5298;BME280;14738;42.668;23.250;2023-08-12T04:05:59;48521.34;;;-141.90;40.65
5298;BME280;14738;42.668;23.250;2023-08-12T04:08:25;48545.16;;;-141.90;39.95
5298;BME280;14738;42.668;23.250;2023-08-12T04:10:51;48557.06;;;-141.90;38.53
5298;BME280;14738;42.668;23.250;2023-08-12T04:13:16;48610.66;;;-141.90;36.86
5298;BME280;14738;42.668;23.250;2023-08-12T04:15:42;48580.88;;;-141.90;36.40
5298;BME280;14738;42.668;23.250;2023-08-12T04:18:07;48648.38;;;-141.90;35.73
5298;BME280;14738;42.668;23.250;2023-08-12T04:20:33;48614.63;;;-141.90;36.08
5298;BME280;14738;42.668;23.250;2023-08-12T04:22:59;48644.41;;;-141.90;33.74
5298;BME280;14738;42.668;23.250;2023-08-12T04:25:25;48682.13;;;-141.90;34.43
5298;BME280;14738;42.668;23.250;2023-08-12T04:27:51;48634.50;;;-141.90;35.23
5298;BME280;14738;42.668;23.250;2023-08-12T04:30:17;48664.28;;;-141.90;35.15
5298;BME280;14738;42.668;23.250;2023-08-12T04:32:42;48672.22;;;-141.90;32.75
5298;BME280;14738;42.668;23.250;2023-08-12T04:35:08;48703.97;;;-141.90;31.42
5298;BME280;14738;42.668;23.250;2023-08-12T04:37:35;48660.31;;;-141.90;31.16
5298;BME280;14738;42.668;23.250;2023-08-12T04:40:00;48690.09;;;-141.90;31.86
5298;BME280;14738;42.668;23.250;2023-08-12T04:42:26;48727.81;;;-141.90;31.13
5298;BME280;14738;42.668;23.250;2023-08-12T04:44:51;48769.50;;;-141.90;30.34
5298;BME280;14738;42.668;23.250;2023-08-12T04:47:17;48749.66;;;-141.90;29.36
5298;BME280;14738;42.668;23.250;2023-08-12T04:49:42;48703.97;;;-141.90;30.40
5298;BME280;14738;42.668;23.250;2023-08-12T04:52:08;48751.63;;;-141.90;28.59
5298;BME280;14738;42.668;23.250;2023-08-12T04:54:33;48640.44;;;-141.90;31.02
5298;BME280;14738;42.668;23.250;2023-08-12T04:56:59;48703.97;;;-141.90;30.92
5298;BME280;14738;42.668;23.250;2023-08-12T04:59:25;48731.78;;;-141.90;29.41
5298;BME280;14738;42.668;23.250;2023-08-12T05:01:50;48725.81;;;-141.90;27.47
5298;BME280;14738;42.668;23.250;2023-08-12T05:04:16;48842.97;;;-141.90;27.04
5298;BME280;14738;42.668;23.250;2023-08-12T05:06:41;48777.44;;;-141.90;26.79
5298;BME280;14738;42.668;23.250;2023-08-12T05:09:07;48656.34;;;-141.90;28.17
5298;BME280;14738;42.668;23.250;2023-08-12T05:11:32;48680.16;;;-141.90;28.81
5298;BME280;14738;42.668;23.250;2023-08-12T05:13:57;48813.19;;;-141.90;26.38
5298;BME280;14738;42.668;23.250;2023-08-12T05:16:23;48791.34;;;-141.90;26.72
5298;BME280;14738;42.668;23.250;2023-08-12T05:18:48;48713.91;;;-141.90;27.44
5298;BME280;14738;42.668;23.250;2023-08-12T05:21:13;48644.41;;;-141.90;28.75
5298;BME280;14738;42.668;23.250;2023-08-12T05:23:39;48644.41;;;-141.90;29.90
5298;BME280;14738;42.668;23.250;2023-08-12T05:26:04;48644.41;;;-141.90;29.85
5298;BME280;14738;42.668;23.250;2023-08-12T05:28:30;48715.91;;;-141.90;29.97
5298;BME280;14738;42.668;23.250;2023-08-12T05:30:56;48711.91;;;-141.90;27.29
5298;BME280;14738;42.668;23.250;2023-08-12T05:33:22;48767.50;;;-141.90;27.58
5298;BME280;14738;42.668;23.250;2023-08-12T05:35:48;48729.78;;;-141.90;27.50
5298;BME280;14738;42.668;23.250;2023-08-12T05:38:13;48765.53;;;-141.90;27.70
5298;BME280;14738;42.668;23.250;2023-08-12T05:40:38;48835.03;;;-141.90;26.36
5298;BME280;14738;42.668;23.250;2023-08-12T05:43:04;48914.44;;;-141.90;25.23
5298;BME280;14738;42.668;23.250;2023-08-12T05:45:29;48993.84;;;-141.90;22.80
5298;BME280;14738;42.668;23.250;2023-08-12T05:47:55;48866.78;;;-141.90;24.19
5298;BME280;14738;42.668;23.250;2023-08-12T05:50:21;48831.03;;;-141.90;26.16
5298;BME280;14738;42.668;23.250;2023-08-12T05:52:46;48882.66;;;-141.90;24.72
5298;BME280;14738;42.668;23.250;2023-08-12T05:55:12;48842.97;;;-141.90;24.75
5298;BME280;14738;42.668;23.250;2023-08-12T05:57:37;48874.72;;;-141.90;24.13
5298;BME280;14738;42.668;23.250;2023-08-12T06:00:03;48872.75;;;-141.90;24.52
5298;BME280;14738;42.668;23.250;2023-08-12T06:02:29;48846.94;;;-141.90;25.80
5298;BME280;14738;42.668;23.250;2023-08-12T06:04:54;48860.81;;;-141.90;24.73
5298;BME280;14738;42.668;23.250;2023-08-12T06:07:20;48886.63;;;-141.90;24.95
5298;BME280;14738;42.668;23.250;2023-08-12T06:09:45;49005.78;;;-141.90;23.42
5298;BME280;14738;42.668;23.250;2023-08-12T06:12:10;49003.78;;;-141.90;22.44
5298;BME280;14738;42.668;23.250;2023-08-12T06:14:40;48934.28;;;-141.90;25.15
5298;BME280;14738;42.668;23.250;2023-08-12T06:17:05;48974.00;;;-141.90;24.23
5298;BME280;14738;42.668;23.250;2023-08-12T06:19:31;48985.91;;;-141.90;22.98
5298;BME280;14738;42.668;23.250;2023-08-12T06:21:56;48910.47;;;-141.90;23.50
5298;BME280;14738;42.668;23.250;2023-08-12T06:24:21;48858.84;;;-141.90;24.24
5298;BME280;14738;42.668;23.250;2023-08-12T06:26:47;48930.31;;;-141.90;24.64
5298;BME280;14738;42.668;23.250;2023-08-12T06:29:12;48966.06;;;-141.90;23.30
5298;BME280;14738;42.668;23.250;2023-08-12T06:31:39;48904.50;;;-141.90;23.53
5298;BME280;14738;42.668;23.250;2023-08-12T06:34:04;48958.13;;;-141.90;24.04
5298;BME280;14738;42.668;23.250;2023-08-12T06:36:30;48918.41;;;-141.90;24.84
5298;BME280;14738;42.668;23.250;2023-08-12T06:38:55;48898.56;;;-141.90;25.28
5298;BME280;14738;42.668;23.250;2023-08-12T06:41:21;48997.81;;;-141.90;23.26
5298;BME280;14738;42.668;23.250;2023-08-12T06:43:46;48989.88;;;-141.90;23.41
5298;BME280;14738;42.668;23.250;2023-08-12T06:46:11;48930.31;;;-141.90;24.50
5298;BME280;14738;42.668;23.250;2023-08-12T06:48:37;48898.56;;;-141.90;24.87
5298;BME280;14738;42.668;23.250;2023-08-12T06:51:02;48886.63;;;-141.90;25.86
5298;BME280;14738;42.668;23.250;2023-08-12T06:53:35;48900.53;;;-141.90;25.99
5298;BME280;14738;42.668;23.250;2023-08-12T06:56:00;48862.81;;;-141.90;24.97
5298;BME280;14738;42.668;23.250;2023-08-12T06:58:26;48993.84;;;-141.90;23.16
5298;BME280;14738;42.668;23.250;2023-08-12T07:00:51;48886.63;;;-141.90;24.01
5298;BME280;14738;42.668;23.250;2023-08-12T07:03:18;48854.88;;;-141.90;25.24
5298;BME280;14738;42.668;23.250;2023-08-12T07:05:43;48803.25;;;-141.90;26.15
5298;BME280;14738;42.668;23.250;2023-08-12T07:08:09;48751.63;;;-141.90;26.21
5298;BME280;14738;42.668;23.250;2023-08-12T07:10:38;48702.00;;;-141.90;27.47
5298;BME280;14738;42.668;23.250;2023-08-12T07:13:03;48692.06;;;-141.90;27.69
5298;BME280;14738;42.668;23.250;2023-08-12T07:15:29;48668.25;;;-141.90;28.41
5298;BME280;14738;42.668;23.250;2023-08-12T07:17:54;48684.13;;;-141.90;27.65
5298;BME280;14738;42.668;23.250;2023-08-12T07:20:19;48628.53;;;-141.90;28.45
5298;BME280;14738;42.668;23.250;2023-08-12T07:22:45;48664.28;;;-141.90;30.74
5298;BME280;14738;42.668;23.250;2023-08-12T07:25:10;48664.28;;;-141.90;29.06
5298;BME280;14738;42.668;23.250;2023-08-12T07:27:36;48628.53;;;-141.90;30.47
5298;BME280;14738;42.668;23.250;2023-08-12T07:30:01;48616.63;;;-141.90;29.86
5298;BME280;14738;42.668;23.250;2023-08-12T07:32:27;48608.69;;;-141.90;28.71
5298;BME280;14738;42.668;23.250;2023-08-12T07:34:52;48604.72;;;-141.90;29.56
5298;BME280;14738;42.668;23.250;2023-08-12T07:37:17;48612.66;;;-141.90;29.74
5298;BME280;14738;42.668;23.250;2023-08-12T07:39:43;48614.63;;;-141.90;30.20
5298;BME280;14738;42.668;23.250;2023-08-12T07:42:08;48608.69;;;-141.90;30.36
5298;BME280;14738;42.668;23.250;2023-08-12T07:44:33;48606.69;;;-141.90;29.84
5298;BME280;14738;42.668;23.250;2023-08-12T07:46:59;48570.97;;;-141.90;29.81
5298;BME280;14738;42.668;23.250;2023-08-12T07:49:24;48604.72;;;-141.90;30.19
5298;BME280;14738;42.668;23.250;2023-08-12T07:51:50;48553.09;;;-141.90;30.34
5298;BME280;14738;42.668;23.250;2023-08-12T07:54:15;48580.88;;;-141.90;31.25
5298;BME280;14738;42.668;23.250;2023-08-12T07:56:40;48570.97;;;-141.90;32.40
5298;BME280;14738;42.668;23.250;2023-08-12T07:59:06;48596.78;;;-141.90;31.01
5298;BME280;14738;42.668;23.250;2023-08-12T08:01:31;48600.75;;;-141.90;30.69
5298;BME280;14738;42.668;23.250;2023-08-12T08:03:57;48600.75;;;-141.90;32.50
5298;BME280;14738;42.668;23.250;2023-08-12T08:06:22;48561.03;;;-141.90;31.31
5298;BME280;14738;42.668;23.250;2023-08-12T08:08:51;48572.94;;;-141.90;32.44
5298;BME280;14738;42.668;23.250;2023-08-12T08:11:16;48608.69;;;-141.90;31.06
5298;BME280;14738;42.668;23.250;2023-08-12T08:13:41;48584.84;;;-141.90;31.29
5298;BME280;14738;42.668;23.250;2023-08-12T08:16:07;48565.00;;;-141.90;30.89
5298;BME280;14738;42.668;23.250;2023-08-12T08:18:32;48588.84;;;-141.90;31.01
5298;BME280;14738;42.668;23.250;2023-08-12T08:20:58;48584.84;;;-141.90;31.46
5298;BME280;14738;42.668;23.250;2023-08-12T08:23:23;48608.69;;;-141.90;30.10
5298;BME280;14738;42.668;23.250;2023-08-12T08:25:48;48592.81;;;-141.90;30.72
5298;BME280;14738;42.668;23.250;2023-08-12T08:28:14;48576.91;;;-141.90;30.97
5298;BME280;14738;42.668;23.250;2023-08-12T08:30:39;48592.81;;;-141.90;31.58
5298;BME280;14738;42.668;23.250;2023-08-12T08:33:05;48592.81;;;-141.90;31.65
5298;BME280;14738;42.668;23.250;2023-08-12T08:35:30;48604.72;;;-141.90;30.63
5298;BME280;14738;42.668;23.250;2023-08-12T08:37:55;48539.19;;;-141.90;30.74
5298;BME280;14738;42.668;23.250;2023-08-12T08:40:21;48561.03;;;-141.90;30.99
5298;BME280;14738;42.668;23.250;2023-08-12T08:42:46;48580.88;;;-141.90;29.59
5298;BME280;14738;42.668;23.250;2023-08-12T08:45:17;48586.84;;;-141.90;30.79
5298;BME280;14738;42.668;23.250;2023-08-12T08:47:43;48586.84;;;-141.90;30.60
5298;BME280;14738;42.668;23.250;2023-08-12T08:50:10;48618.59;;;-141.90;30.82
5298;BME280;14738;42.668;23.250;2023-08-12T08:52:36;48628.53;;;-141.90;32.44
5298;BME280;14738;42.668;23.250;2023-08-12T08:55:04;48640.44;;;-141.90;30.04
5298;BME280;14738;42.668;23.250;2023-08-12T08:57:30;48640.44;;;-141.90;29.24
5298;BME280;14738;42.668;23.250;2023-08-12T08:59:55;48624.56;;;-141.90;28.30
5298;BME280;14738;42.668;23.250;2023-08-12T09:02:21;48600.75;;;-141.90;29.22
5298;BME280;14738;42.668;23.250;2023-08-12T09:04:48;48600.75;;;-141.90;29.38
5298;BME280;14738;42.668;23.250;2023-08-12T09:07:14;48580.88;;;-141.90;29.26
5298;BME280;14738;42.668;23.250;2023-08-12T09:09:42;48604.72;;;-141.90;29.16
5298;BME280;14738;42.668;23.250;2023-08-12T09:12:13;48604.72;;;-141.90;28.91
5298;BME280;14738;42.668;23.250;2023-08-12T09:14:39;48584.84;;;-141.90;28.64
5298;BME280;14738;42.668;23.250;2023-08-12T09:17:04;48580.88;;;-141.90;28.88
5298;BME280;14738;42.668;23.250;2023-08-12T09:19:30;48586.84;;;-141.90;28.50
5298;BME280;14738;42.668;23.250;2023-08-12T09:21:55;48572.94;;;-141.90;29.51
5298;BME280;14738;42.668;23.250;2023-08-12T09:24:24;48616.63;;;-141.90;29.11
5298;BME280;14738;42.668;23.250;2023-08-12T09:26:54;48596.78;;;-141.90;29.01
5298;BME280;14738;42.668;23.250;2023-08-12T09:29:26;48596.78;;;-141.90;29.47
5298;BME280;14738;42.668;23.250;2023-08-12T09:31:54;48604.72;;;-141.90;29.12
5298;BME280;14738;42.668;23.250;2023-08-12T09:34:19;48580.88;;;-141.90;28.88
5298;BME280;14738;42.668;23.250;2023-08-12T09:36:44;48612.66;;;-141.90;29.27
5298;BME280;14738;42.668;23.250;2023-08-12T09:39:12;48630.53;;;-141.90;29.83
5298;BME280;14738;42.668;23.250;2023-08-12T09:41:38;48656.34;;;-141.90;29.36
5298;BME280;14738;42.668;23.250;2023-08-12T09:44:06;48632.50;;;-141.90;28.38
5298;BME280;14738;42.668;23.250;2023-08-12T09:46:33;48590.81;;;-141.90;27.74
5298;BME280;14738;42.668;23.250;2023-08-12T09:48:59;48644.41;;;-141.90;28.03
5298;BME280;14738;42.668;23.250;2023-08-12T09:51:24;48644.41;;;-141.90;28.52
5298;BME280;14738;42.668;23.250;2023-08-12T09:53:51;48614.63;;;-141.90;28.28
5298;BME280;14738;42.668;23.250;2023-08-12T09:56:22;48640.44;;;-141.90;27.58
5298;BME280;14738;42.668;23.250;2023-08-12T09:58:49;48600.75;;;-141.90;27.84
5298;BME280;14738;42.668;23.250;2023-08-12T10:01:18;48600.75;;;-141.90;29.12
5298;BME280;14738;42.668;23.250;2023-08-12T10:03:50;48628.53;;;-141.90;28.32
5298;BME280;14738;42.668;23.250;2023-08-12T10:06:19;48616.63;;;-141.90;27.91
5298;BME280;14738;42.668;23.250;2023-08-12T10:08:48;48656.34;;;-141.90;27.90
5298;BME280;14738;42.668;23.250;2023-08-12T10:11:15;48632.50;;;-141.90;28.23
5298;BME280;14738;42.668;23.250;2023-08-12T10:13:41;48628.53;;;-141.90;28.38
5298;BME280;14738;42.668;23.250;2023-08-12T10:16:08;48664.28;;;-141.90;26.69
5298;BME280;14738;42.668;23.250;2023-08-12T10:18:34;48628.53;;;-141.90;28.43
5298;BME280;14738;42.668;23.250;2023-08-12T10:21:01;48628.53;;;-141.90;28.79
5298;BME280;14738;42.668;23.250;2023-08-12T10:23:27;48624.56;;;-141.90;28.00
5298;BME280;14738;42.668;23.250;2023-08-12T10:25:54;48656.34;;;-141.90;28.68
5298;BME280;14738;42.668;23.250;2023-08-12T10:28:20;48628.53;;;-141.90;27.54
5298;BME280;14738;42.668;23.250;2023-08-12T10:30:47;48652.38;;;-141.90;27.98
5298;BME280;14738;42.668;23.250;2023-08-12T10:33:14;48668.25;;;-141.90;27.22
5298;BME280;14738;42.668;23.250;2023-08-12T10:35:45;48668.25;;;-141.90;27.80
5298;BME280;14738;42.668;23.250;2023-08-12T10:38:13;48696.03;;;-141.90;27.02
5298;BME280;14738;42.668;23.250;2023-08-12T10:40:39;48686.13;;;-141.90;26.92
5298;BME280;14738;42.668;23.250;2023-08-12T10:43:05;48688.09;;;-141.90;26.16
5298;BME280;14738;42.668;23.250;2023-08-12T10:45:47;48658.31;;;-141.90;26.20
5298;BME280;14738;42.668;23.250;2023-08-12T10:48:22;48644.41;;;-141.90;26.17
5298;BME280;14738;42.668;23.250;2023-08-12T10:50:52;48668.25;;;-141.90;25.59
5298;BME280;14738;42.668;23.250;2023-08-12T10:55:53;48652.38;;;-141.90;26.53
5298;BME280;14738;42.668;23.250;2023-08-12T10:58:46;48646.41;;;-141.90;26.13
5298;BME280;14738;42.668;23.250;2023-08-12T11:01:18;48684.13;;;-141.90;26.33
5298;BME280;14738;42.668;23.250;2023-08-12T11:03:44;48688.09;;;-141.90;26.01
5298;BME280;14738;42.668;23.250;2023-08-12T11:06:10;48711.91;;;-141.90;25.73
5298;BME280;14738;42.668;23.250;2023-08-12T11:08:36;48654.34;;;-141.90;25.65
5298;BME280;14738;42.668;23.250;2023-08-12T11:11:02;48694.06;;;-141.90;25.81
5298;BME280;14738;42.668;23.250;2023-08-12T11:13:28;48672.22;;;-141.90;25.13
5298;BME280;14738;42.668;23.250;2023-08-12T11:16:06;48684.13;;;-141.90;25.40
5298;BME280;14738;42.668;23.250;2023-08-12T11:18:32;48684.13;;;-141.90;24.77
5298;BME280;14738;42.668;23.250;2023-08-12T11:20:58;48713.91;;;-141.90;24.84
5298;BME280;14738;42.668;23.250;2023-08-12T11:23:23;48682.13;;;-141.90;24.53
5298;BME280;14738;42.668;23.250;2023-08-12T11:25:49;48705.97;;;-141.90;24.62
5298;BME280;14738;42.668;23.250;2023-08-12T11:28:17;48731.78;;;-141.90;25.05
5298;BME280;14738;42.668;23.250;2023-08-12T11:30:44;48725.81;;;-141.90;24.49
5298;BME280;14738;42.668;23.250;2023-08-12T11:33:10;48707.94;;;-141.90;24.30
5298;BME280;14738;42.668;23.250;2023-08-12T11:35:37;48729.78;;;-141.90;24.62
5298;BME280;14738;42.668;23.250;2023-08-12T11:38:05;48713.91;;;-141.90;23.96
5298;BME280;14738;42.668;23.250;2023-08-12T11:40:30;48741.69;;;-141.90;23.63
5298;BME280;14738;42.668;23.250;2023-08-12T11:42:56;48719.88;;;-141.90;23.73
5298;BME280;14738;42.668;23.250;2023-08-12T11:45:24;48703.97;;;-141.90;23.88
5298;BME280;14738;42.668;23.250;2023-08-12T11:47:50;48688.09;;;-141.90;24.49
5298;BME280;14738;42.668;23.250;2023-08-12T11:50:21;48660.31;;;-141.90;24.26
5298;BME280;14738;42.668;23.250;2023-08-12T11:52:47;48658.31;;;-141.90;24.09
5298;BME280;14738;42.668;23.250;2023-08-12T11:55:13;48620.59;;;-141.90;24.92
5298;BME280;14738;42.668;23.250;2023-08-12T11:57:41;48680.16;;;-141.90;23.81
5298;BME280;14738;42.668;23.250;2023-08-12T12:00:10;48674.19;;;-141.90;23.73
5298;BME280;14738;42.668;23.250;2023-08-12T12:02:41;48727.81;;;-141.90;23.66
5298;BME280;14738;42.668;23.250;2023-08-12T12:05:09;48707.94;;;-141.90;22.74
5298;BME280;14738;42.668;23.250;2023-08-12T12:07:36;48705.97;;;-141.90;22.90
5298;BME280;14738;42.668;23.250;2023-08-12T12:10:01;48709.94;;;-141.90;22.57
5298;BME280;14738;42.668;23.250;2023-08-12T12:12:27;48735.75;;;-141.90;22.69
5298;BME280;14738;42.668;23.250;2023-08-12T12:14:53;48713.91;;;-141.90;23.31
5298;BME280;14738;42.668;23.250;2023-08-12T12:17:24;48747.66;;;-141.90;22.63
5298;BME280;14738;42.668;23.250;2023-08-12T12:19:57;48731.78;;;-141.90;24.14
5298;BME280;14738;42.668;23.250;2023-08-12T12:22:50;48676.19;;;-141.90;25.31
5298;BME280;14738;42.668;23.250;2023-08-12T12:25:17;48707.94;;;-141.90;26.29
5298;BME280;14738;42.668;23.250;2023-08-12T12:27:45;48662.28;;;-141.90;26.21
5298;BME280;14738;42.668;23.250;2023-08-12T12:30:12;48692.06;;;-141.90;26.35
5298;BME280;14738;42.668;23.250;2023-08-12T12:32:41;48686.13;;;-141.90;26.98
5298;BME280;14738;42.668;23.250;2023-08-12T12:35:07;48664.28;;;-141.90;26.20
5298;BME280;14738;42.668;23.250;2023-08-12T12:37:33;48632.50;;;-141.90;26.66
5298;BME280;14738;42.668;23.250;2023-08-12T12:39:58;48672.22;;;-141.90;27.21
5298;BME280;14738;42.668;23.250;2023-08-12T12:42:23;48694.06;;;-141.90;25.79